sensor_id;sensor_type;location;lat;lon;timestamp;pressure;altitude;pressure_sealevel;temperature;humidity
18813;BME280;9534;51.140;6.296;2023-01-28T00:00:43;101789.25;;;3.29;100.00
18813;BME280;9534;51.140;6.296;2023-01-28T00:04:46;101793.22;;;3.25;100.00
18813;BME280;9534;51.140;6.296;2023-01-28T00:08:50;101779.28;;;3.29;100.00
18813;BME280;9534;51.140;6.296;2023-01-28T00:12:54;101793.94;;;3.27;100.00
18813;BME280;9534;51.140;6.296;2023-01-28T00:17:00;101798.03;;;3.21;100.00
18813;BME280;9534;51.140;6.296;2023-01-28T00:21:06;101793.47;;;3.22;100.00
18813;BME280;9534;51.140;6.296;2023-01-28T00:25:11;101783.50;;;3.22;100.00
18813;BME280;9534;51.140;6.296;2023-01-28T00:29:15;101776.91;;;3.15;100.00
18813;BME280;9534;51.140;6.296;2023-01-28T00:33:21;101772.38;;;3.16;100.00
18813;BME280;9534;51.140;6.296;2023-01-28T00:37:25;101775.81;;;3.18;100.00
18813;BME280;9534;51.140;6.296;2023-01-28T00:41:29;101780.78;;;3.13;100.00
18813;BME280;9534;51.140;6.296;2023-01-28T00:45:33;101780.88;;;3.11;100.00
18813;BME280;9534;51.140;6.296;2023-01-28T00:49:38;101783.03;;;3.08;100.00
18813;BME280;9534;51.140;6.296;2023-01-28T00:53:43;101778.78;;;3.15;100.00
18813;BME280;9534;51.140;6.296;2023-01-28T00:57:47;101782.31;;;3.06;100.00
18813;BME280;9534;51.140;6.296;2023-01-28T01:01:51;101782.03;;;3.09;100.00
18813;BME280;9534;51.140;6.296;2023-01-28T01:05:57;101775.63;;;3.10;100.00
18813;BME280;9534;51.140;6.296;2023-01-28T01:10:01;101769.78;;;3.05;100.00
18813;BME280;9534;51.140;6.296;2023-01-28T01:14:05;101773.72;;;3.01;100.00
18813;BME280;9534;51.140;6.296;2023-01-28T01:18:09;101787.25;;;3.01;100.00
18813;BME280;9534;51.140;6.296;2023-01-28T01:22:14;101791.66;;;3.02;100.00
18813;BME280;9534;51.140;6.296;2023-01-28T01:26:18;101778.41;;;2.99;100.00
18813;BME280;9534;51.140;6.296;2023-01-28T01:30:22;101784.59;;;3.10;100.00
18813;BME280;9534;51.140;6.296;2023-01-28T01:34:26;101785.53;;;3.00;100.00
18813;BME280;9534;51.140;6.296;2023-01-28T01:38:31;101792.19;;;2.96;100.00
18813;BME280;9534;51.140;6.296;2023-01-28T01:42:37;101783.38;;;2.94;100.00
18813;BME280;9534;51.140;6.296;2023-01-28T01:46:45;101784.34;;;2.93;100.00
18813;BME280;9534;51.140;6.296;2023-01-28T01:50:53;101783.09;;;2.97;100.00
18813;BME280;9534;51.140;6.296;2023-01-28T01:55:04;101789.75;;;2.93;100.00
18813;BME280;9534;51.140;6.296;2023-01-28T01:59:12;101797.75;;;2.94;100.00
18813;BME280;9534;51.140;6.296;2023-01-28T02:03:21;101798.47;;;2.96;100.00
18813;BME280;9534;51.140;6.296;2023-01-28T02:07:29;101793.34;;;2.93;100.00
18813;BME280;9534;51.140;6.296;2023-01-28T02:11:34;101788.78;;;2.94;100.00
18813;BME280;9534;51.140;6.296;2023-01-28T02:15:37;101798.66;;;2.84;100.00
18813;BME280;9534;51.140;6.296;2023-01-28T02:19:46;101805.59;;;2.77;100.00
18813;BME280;9534;51.140;6.296;2023-01-28T02:24:05;101798.63;;;2.74;100.00
18813;BME280;9534;51.140;6.296;2023-01-28T02:28:22;101803.69;;;2.68;100.00
18813;BME280;9534;51.140;6.296;2023-01-28T02:32:35;101801.69;;;2.70;100.00
18813;BME280;9534;51.140;6.296;2023-01-28T02:36:44;101794.84;;;2.66;100.00
18813;BME280;9534;51.140;6.296;2023-01-28T02:40:54;101799.81;;;2.61;100.00
18813;BME280;9534;51.140;6.296;2023-01-28T02:45:17;101814.44;;;2.58;100.00
18813;BME280;9534;51.140;6.296;2023-01-28T02:49:26;101808.75;;;2.61;100.00
18813;BME280;9534;51.140;6.296;2023-01-28T02:53:37;101801.84;;;2.48;100.00
18813;BME280;9534;51.140;6.296;2023-01-28T02:57:53;101807.31;;;2.57;100.00
18813;BME280;9534;51.140;6.296;2023-01-28T03:02:09;101808.09;;;2.48;100.00
18813;BME280;9534;51.140;6.296;2023-01-28T03:06:18;101812.28;;;2.42;100.00
18813;BME280;9534;51.140;6.296;2023-01-28T03:10:25;101819.09;;;2.36;100.00
18813;BME280;9534;51.140;6.296;2023-01-28T03:14:30;101812.81;;;2.36;100.00
18813;BME280;9534;51.140;6.296;2023-01-28T03:18:54;101814.31;;;2.29;100.00
18813;BME280;9534;51.140;6.296;2023-01-28T03:23:20;101813.94;;;2.33;100.00
18813;BME280;9534;51.140;6.296;2023-01-28T03:27:48;101811.97;;;2.35;100.00
18813;BME280;9534;51.140;6.296;2023-01-28T03:32:11;101810.72;;;2.19;100.00
18813;BME280;9534;51.140;6.296;2023-01-28T03:36:35;101821.34;;;2.20;100.00
18813;BME280;9534;51.140;6.296;2023-01-28T03:41:11;101807.03;;;2.20;100.00
18813;BME280;9534;51.140;6.296;2023-01-28T03:45:15;101813.50;;;2.17;100.00
18813;BME280;9534;51.140;6.296;2023-01-28T03:49:21;101815.25;;;2.07;100.00
18813;BME280;9534;51.140;6.296;2023-01-28T03:53:27;101811.09;;;2.03;100.00
18813;BME280;9534;51.140;6.296;2023-01-28T03:57:32;101833.56;;;2.04;100.00
18813;BME280;9534;51.140;6.296;2023-01-28T04:01:36;101822.63;;;2.05;100.00
18813;BME280;9534;51.140;6.296;2023-01-28T04:05:41;101828.16;;;2.04;100.00
18813;BME280;9534;51.140;6.296;2023-01-28T04:09:47;101824.38;;;1.95;100.00
18813;BME280;9534;51.140;6.296;2023-01-28T04:14:01;101824.63;;;1.92;100.00
18813;BME280;9534;51.140;6.296;2023-01-28T04:18:22;101825.34;;;1.94;100.00
18813;BME280;9534;51.140;6.296;2023-01-28T04:22:31;101838.25;;;1.91;100.00
18813;BME280;9534;51.140;6.296;2023-01-28T04:26:36;101835.41;;;1.92;100.00
18813;BME280;9534;51.140;6.296;2023-01-28T04:30:40;101832.00;;;1.90;100.00
18813;BME280;9534;51.140;6.296;2023-01-28T04:34:59;101836.19;;;1.83;100.00
18813;BME280;9534;51.140;6.296;2023-01-28T04:39:42;101844.16;;;1.85;100.00
18813;BME280;9534;51.140;6.296;2023-01-28T04:43:56;101844.91;;;1.87;100.00
18813;BME280;9534;51.140;6.296;2023-01-28T04:48:24;101847.69;;;1.85;100.00
18813;BME280;9534;51.140;6.296;2023-01-28T04:52:54;101838.13;;;1.81;100.00
18813;BME280;9534;51.140;6.296;2023-01-28T04:57:13;101835.34;;;1.83;100.00
18813;BME280;9534;51.140;6.296;2023-01-28T05:01:19;101838.88;;;1.83;100.00
18813;BME280;9534;51.140;6.296;2023-01-28T05:05:23;101836.72;;;1.77;100.00
18813;BME280;9534;51.140;6.296;2023-01-28T05:09:31;101841.38;;;1.75;100.00
18813;BME280;9534;51.140;6.296;2023-01-28T05:13:36;101832.28;;;1.76;100.00
18813;BME280;9534;51.140;6.296;2023-01-28T05:17:44;101835.97;;;1.75;100.00
18813;BME280;9534;51.140;6.296;2023-01-28T05:21:50;101836.34;;;1.71;100.00
18813;BME280;9534;51.140;6.296;2023-01-28T05:26:06;101835.75;;;1.67;100.00
18813;BME280;9534;51.140;6.296;2023-01-28T05:30:10;101846.28;;;1.70;100.00
18813;BME280;9534;51.140;6.296;2023-01-28T05:34:16;101835.75;;;1.67;100.00
18813;BME280;9534;51.140;6.296;2023-01-28T05:38:20;101832.78;;;1.70;100.00
18813;BME280;9534;51.140;6.296;2023-01-28T05:42:25;101840.88;;;1.70;100.00
18813;BME280;9534;51.140;6.296;2023-01-28T05:46:37;101854.13;;;1.62;100.00
18813;BME280;9534;51.140;6.296;2023-01-28T05:51:19;101852.91;;;1.66;100.00
18813;BME280;9534;51.140;6.296;2023-01-28T05:55:28;101855.59;;;1.66;100.00
18813;BME280;9534;51.140;6.296;2023-01-28T05:59:32;101866.50;;;1.65;100.00
18813;BME280;9534;51.140;6.296;2023-01-28T06:03:37;101865.28;;;1.69;100.00
18813;BME280;9534;51.140;6.296;2023-01-28T06:07:46;101862.34;;;1.61;100.00
18813;BME280;9534;51.140;6.296;2023-01-28T06:11:51;101854.38;;;1.59;100.00
18813;BME280;9534;51.140;6.296;2023-01-28T06:15:57;101850.94;;;1.57;100.00
18813;BME280;9534;51.140;6.296;2023-01-28T06:20:21;101853.88;;;1.65;100.00
18813;BME280;9534;51.140;6.296;2023-01-28T06:24:27;101860.38;;;1.63;100.00
18813;BME280;9534;51.140;6.296;2023-01-28T06:28:31;101857.56;;;1.53;100.00
18813;BME280;9534;51.140;6.296;2023-01-28T06:32:35;101855.72;;;1.54;100.00
18813;BME280;9534;51.140;6.296;2023-01-28T06:36:39;101860.50;;;1.50;100.00
18813;BME280;9534;51.140;6.296;2023-01-28T06:40:50;101867.13;;;1.46;100.00
18813;BME280;9534;51.140;6.296;2023-01-28T06:44:54;101861.34;;;1.51;100.00
18813;BME280;9534;51.140;6.296;2023-01-28T06:48:58;101872.63;;;1.45;100.00
18813;BME280;9534;51.140;6.296;2023-01-28T06:53:01;101869.81;;;1.46;100.00
18813;BME280;9534;51.140;6.296;2023-01-28T06:57:07;101866.16;;;1.47;100.00
18813;BME280;9534;51.140;6.296;2023-01-28T07:01:11;101876.31;;;1.44;100.00
18813;BME280;9534;51.140;6.296;2023-01-28T07:05:16;101867.63;;;1.40;100.00
18813;BME280;9534;51.140;6.296;2023-01-28T07:09:19;101876.31;;;1.44;100.00
18813;BME280;9534;51.140;6.296;2023-01-28T07:13:24;101868.34;;;1.42;100.00
18813;BME280;9534;51.140;6.296;2023-01-28T07:17:27;101866.63;;;1.41;100.00
18813;BME280;9534;51.140;6.296;2023-01-28T07:21:31;101868.59;;;1.39;100.00
18813;BME280;9534;51.140;6.296;2023-01-28T07:25:35;101863.94;;;1.41;100.00
18813;BME280;9534;51.140;6.296;2023-01-28T07:29:41;101867.72;;;1.39;100.00
18813;BME280;9534;51.140;6.296;2023-01-28T07:33:45;101862.47;;;1.37;100.00
18813;BME280;9534;51.140;6.296;2023-01-28T07:37:53;101861.25;;;1.41;100.00
18813;BME280;9534;51.140;6.296;2023-01-28T07:41:57;101870.91;;;1.44;100.00
18813;BME280;9534;51.140;6.296;2023-01-28T07:46:12;101868.34;;;1.42;100.00
18813;BME280;9534;51.140;6.296;2023-01-28T07:50:16;101872.53;;;1.35;100.00
18813;BME280;9534;51.140;6.296;2023-01-28T07:54:20;101870.56;;;1.37;100.00
18813;BME280;9534;51.140;6.296;2023-01-28T07:58:23;101866.78;;;1.29;100.00
18813;BME280;9534;51.140;6.296;2023-01-28T08:02:28;101867.59;;;1.29;100.00
18813;BME280;9534;51.140;6.296;2023-01-28T08:06:31;101876.09;;;1.36;100.00
18813;BME280;9534;51.140;6.296;2023-01-28T08:10:39;101891.66;;;1.43;100.00
18813;BME280;9534;51.140;6.296;2023-01-28T08:14:42;101908.56;;;1.45;100.00
18813;BME280;9534;51.140;6.296;2023-01-28T08:18:46;101924.88;;;1.55;100.00
18813;BME280;9534;51.140;6.296;2023-01-28T08:22:49;101930.16;;;1.45;100.00
18813;BME280;9534;51.140;6.296;2023-01-28T08:26:52;101915.56;;;1.70;100.00
18813;BME280;9534;51.140;6.296;2023-01-28T08:30:58;101916.44;;;1.70;100.00
18813;BME280;9534;51.140;6.296;2023-01-28T08:35:04;101921.44;;;1.64;100.00
18813;BME280;9534;51.140;6.296;2023-01-28T08:39:08;101921.09;;;1.57;100.00
18813;BME280;9534;51.140;6.296;2023-01-28T08:43:11;101930.66;;;1.72;100.00
18813;BME280;9534;51.140;6.296;2023-01-28T08:47:14;101926.75;;;1.76;100.00
18813;BME280;9534;51.140;6.296;2023-01-28T08:51:19;101939.25;;;1.77;100.00
18813;BME280;9534;51.140;6.296;2023-01-28T08:55:22;101952.00;;;1.75;100.00
18813;BME280;9534;51.140;6.296;2023-01-28T08:59:25;101958.59;;;1.82;100.00
18813;BME280;9534;51.140;6.296;2023-01-28T09:03:28;101953.72;;;1.76;100.00
18813;BME280;9534;51.140;6.296;2023-01-28T09:07:34;101953.47;;;1.79;100.00
18813;BME280;9534;51.140;6.296;2023-01-28T09:11:37;101965.97;;;1.58;100.00
18813;BME280;9534;51.140;6.296;2023-01-28T09:15:41;101981.50;;;1.55;100.00
18813;BME280;9534;51.140;6.296;2023-01-28T09:19:44;101982.16;;;1.58;100.00
18813;BME280;9534;51.140;6.296;2023-01-28T09:23:49;101979.44;;;1.58;100.00
18813;BME280;9534;51.140;6.296;2023-01-28T09:27:52;101985.59;;;1.82;100.00
18813;BME280;9534;51.140;6.296;2023-01-28T09:31:55;101988.06;;;1.74;100.00
18813;BME280;9534;51.140;6.296;2023-01-28T09:35:59;101990.84;;;1.73;100.00
18813;BME280;9534;51.140;6.296;2023-01-28T09:40:06;102000.31;;;1.78;100.00
18813;BME280;9534;51.140;6.296;2023-01-28T09:44:24;102002.53;;;1.95;100.00
18813;BME280;9534;51.140;6.296;2023-01-28T09:48:33;101994.06;;;2.00;100.00
18813;BME280;9534;51.140;6.296;2023-01-28T09:52:39;102007.16;;;1.82;100.00
18813;BME280;9534;51.140;6.296;2023-01-28T09:56:46;102007.91;;;1.95;100.00
18813;BME280;9534;51.140;6.296;2023-01-28T10:00:55;102010.28;;;2.00;100.00
18813;BME280;9534;51.140;6.296;2023-01-28T10:05:13;101990.75;;;2.07;100.00
18813;BME280;9534;51.140;6.296;2023-01-28T10:09:25;101996.38;;;2.04;100.00
18813;BME280;9534;51.140;6.296;2023-01-28T10:13:40;101990.38;;;2.01;100.00
18813;BME280;9534;51.140;6.296;2023-01-28T10:17:49;101997.13;;;1.95;100.00
18813;BME280;9534;51.140;6.296;2023-01-28T10:22:01;101991.72;;;1.95;100.00
18813;BME280;9534;51.140;6.296;2023-01-28T10:26:14;101980.19;;;2.15;100.00
18813;BME280;9534;51.140;6.296;2023-01-28T10:30:22;101974.06;;;2.13;100.00
18813;BME280;9534;51.140;6.296;2023-01-28T10:34:26;101970.50;;;2.02;100.00
18813;BME280;9534;51.140;6.296;2023-01-28T10:38:30;101966.69;;;2.15;100.00
18813;BME280;9534;51.140;6.296;2023-01-28T10:42:35;101972.53;;;2.53;100.00
18813;BME280;9534;51.140;6.296;2023-01-28T10:46:40;101987.75;;;2.54;100.00
18813;BME280;9534;51.140;6.296;2023-01-28T10:50:51;101977.91;;;2.64;100.00
18813;BME280;9534;51.140;6.296;2023-01-28T10:54:59;101996.63;;;2.23;100.00
18813;BME280;9534;51.140;6.296;2023-01-28T10:59:04;101988.13;;;2.28;100.00
18813;BME280;9534;51.140;6.296;2023-01-28T11:03:16;102002.28;;;2.09;100.00
18813;BME280;9534;51.140;6.296;2023-01-28T11:07:20;101993.91;;;2.34;100.00
18813;BME280;9534;51.140;6.296;2023-01-28T11:11:24;102003.50;;;2.16;100.00
18813;BME280;9534;51.140;6.296;2023-01-28T11:15:28;102007.69;;;2.20;100.00
18813;BME280;9534;51.140;6.296;2023-01-28T11:19:34;102012.34;;;2.07;100.00
18813;BME280;9534;51.140;6.296;2023-01-28T11:23:50;102022.91;;;1.77;100.00
18813;BME280;9534;51.140;6.296;2023-01-28T11:28:00;102023.59;;;1.57;100.00
18813;BME280;9534;51.140;6.296;2023-01-28T11:32:04;102017.50;;;1.77;100.00
18813;BME280;9534;51.140;6.296;2023-01-28T11:36:22;102003.13;;;1.77;100.00
18813;BME280;9534;51.140;6.296;2023-01-28T11:40:26;101996.63;;;1.90;100.00
18813;BME280;9534;51.140;6.296;2023-01-28T11:44:29;101997.59;;;1.89;100.00
18813;BME280;9534;51.140;6.296;2023-01-28T11:48:40;101997.84;;;1.97;100.00
18813;BME280;9534;51.140;6.296;2023-01-28T11:52:57;101988.06;;;1.74;100.00
18813;BME280;9534;51.140;6.296;2023-01-28T11:57:19;101992.94;;;1.91;100.00
18813;BME280;9534;51.140;6.296;2023-01-28T12:01:30;102008.16;;;1.70;100.00
18813;BME280;9534;51.140;6.296;2023-01-28T12:05:45;101998.94;;;1.62;100.00
18813;BME280;9534;51.140;6.296;2023-01-28T12:09:56;101998.56;;;1.55;100.00
18813;BME280;9534;51.140;6.296;2023-01-28T12:14:09;101997.38;;;1.70;100.00
18813;BME280;9534;51.140;6.296;2023-01-28T12:18:26;101985.47;;;1.73;100.00
18813;BME280;9534;51.140;6.296;2023-01-28T12:22:51;101976.75;;;1.58;100.00
18813;BME280;9534;51.140;6.296;2023-01-28T12:27:09;101972.59;;;1.65;100.00
18813;BME280;9534;51.140;6.296;2023-01-28T12:31:33;101960.94;;;1.87;100.00
18813;BME280;9534;51.140;6.296;2023-01-28T12:35:47;101956.78;;;1.94;100.00
18813;BME280;9534;51.140;6.296;2023-01-28T12:40:04;101937.88;;;2.05;100.00
18813;BME280;9534;51.140;6.296;2023-01-28T12:44:16;101936.75;;;2.07;100.00
18813;BME280;9534;51.140;6.296;2023-01-28T12:48:26;101948.69;;;1.94;100.00
18813;BME280;9534;51.140;6.296;2023-01-28T12:52:34;101918.97;;;1.94;100.00
18813;BME280;9534;51.140;6.296;2023-01-28T12:56:43;101903.44;;;1.75;100.00
18813;BME280;9534;51.140;6.296;2023-01-28T13:00:55;101884.94;;;2.13;100.00
18813;BME280;9534;51.140;6.296;2023-01-28T13:05:07;101868.97;;;2.52;100.00
18813;BME280;9534;51.140;6.296;2023-01-28T13:09:15;101855.16;;;2.87;100.00
18813;BME280;9534;51.140;6.296;2023-01-28T13:13:24;101861.72;;;3.65;100.00
18813;BME280;9534;51.140;6.296;2023-01-28T13:17:31;101884.25;;;3.15;100.00
18813;BME280;9534;51.140;6.296;2023-01-28T13:21:35;101887.59;;;2.66;100.00
18813;BME280;9534;51.140;6.296;2023-01-28T13:25:51;101906.38;;;2.26;100.00
18813;BME280;9534;51.140;6.296;2023-01-28T13:30:03;101903.28;;;2.72;100.00
18813;BME280;9534;51.140;6.296;2023-01-28T13:34:25;101903.75;;;3.98;100.00
18813;BME280;9534;51.140;6.296;2023-01-28T13:38:30;101917.25;;;4.28;100.00
18813;BME280;9534;51.140;6.296;2023-01-28T13:42:34;101924.63;;;3.07;100.00
18813;BME280;9534;51.140;6.296;2023-01-28T13:46:38;101929.84;;;2.25;100.00
18813;BME280;9534;51.140;6.296;2023-01-28T13:50:42;101929.47;;;2.30;100.00
18813;BME280;9534;51.140;6.296;2023-01-28T13:54:50;101915.44;;;2.36;100.00
18813;BME280;9534;51.140;6.296;2023-01-28T13:59:16;101915.63;;;2.54;100.00
18813;BME280;9534;51.140;6.296;2023-01-28T14:08:28;101921.97;;;2.44;100.00
18813;BME280;9534;51.140;6.296;2023-01-28T14:12:48;101930.63;;;1.83;100.00
18813;BME280;9534;51.140;6.296;2023-01-28T14:16:57;101934.06;;;2.07;100.00
18813;BME280;9534;51.140;6.296;2023-01-28T14:21:08;101929.13;;;2.12;100.00
18813;BME280;9534;51.140;6.296;2023-01-28T14:25:19;101922.53;;;1.83;100.00
18813;BME280;9534;51.140;6.296;2023-01-28T14:29:46;101906.81;;;1.99;100.00
18813;BME280;9534;51.140;6.296;2023-01-28T14:33:52;101895.13;;;2.63;100.00
18813;BME280;9534;51.140;6.296;2023-01-28T14:37:56;101900.09;;;2.99;100.00
18813;BME280;9534;51.140;6.296;2023-01-28T14:42:02;101885.03;;;2.65;100.00
18813;BME280;9534;51.140;6.296;2023-01-28T14:46:17;101874.63;;;2.81;100.00
18813;BME280;9534;51.140;6.296;2023-01-28T14:50:52;101883.66;;;2.70;100.00
18813;BME280;9534;51.140;6.296;2023-01-28T14:55:10;101881.34;;;3.07;100.00
18813;BME280;9534;51.140;6.296;2023-01-28T14:59:24;101868.94;;;2.84;100.00
18813;BME280;9534;51.140;6.296;2023-01-28T15:03:29;101860.97;;;3.92;100.00
18813;BME280;9534;51.140;6.296;2023-01-28T15:07:32;101875.50;;;3.91;100.00
18813;BME280;9534;51.140;6.296;2023-01-28T15:11:37;101875.47;;;4.59;100.00
18813;BME280;9534;51.140;6.296;2023-01-28T15:15:47;101880.22;;;4.67;100.00
18813;BME280;9534;51.140;6.296;2023-01-28T15:19:53;101878.38;;;3.99;100.00
18813;BME280;9534;51.140;6.296;2023-01-28T15:23:59;101882.00;;;3.79;100.00
18813;BME280;9534;51.140;6.296;2023-01-28T15:28:04;101892.81;;;4.09;100.00
18813;BME280;9534;51.140;6.296;2023-01-28T15:32:23;101896.63;;;3.97;100.00
18813;BME280;9534;51.140;6.296;2023-01-28T15:36:27;101906.81;;;3.25;100.00
18813;BME280;9534;51.140;6.296;2023-01-28T15:40:40;101905.94;;;3.24;100.00
18813;BME280;9534;51.140;6.296;2023-01-28T15:44:44;101915.19;;;2.70;100.00
18813;BME280;9534;51.140;6.296;2023-01-28T15:48:56;101919.44;;;2.63;100.00
18813;BME280;9534;51.140;6.296;2023-01-28T15:53:01;101916.88;;;2.08;100.00
18813;BME280;9534;51.140;6.296;2023-01-28T15:57:09;101941.44;;;1.50;100.00
18813;BME280;9534;51.140;6.296;2023-01-28T16:01:17;101956.19;;;1.12;100.00
18813;BME280;9534;51.140;6.296;2023-01-28T16:05:26;101944.44;;;0.79;100.00
18813;BME280;9534;51.140;6.296;2023-01-28T16:09:32;101948.34;;;0.51;100.00
18813;BME280;9534;51.140;6.296;2023-01-28T16:13:40;101960.81;;;0.29;100.00
18813;BME280;9534;51.140;6.296;2023-01-28T16:17:47;101965.09;;;0.08;100.00
18813;BME280;9534;51.140;6.296;2023-01-28T16:21:53;101987.63;;;-0.18;100.00
18813;BME280;9534;51.140;6.296;2023-01-28T16:26:00;101998.72;;;-0.35;100.00
18813;BME280;9534;51.140;6.296;2023-01-28T16:30:04;102010.53;;;-0.50;100.00
18813;BME280;9534;51.140;6.296;2023-01-28T16:34:09;102014.63;;;-0.57;100.00
18813;BME280;9534;51.140;6.296;2023-01-28T16:38:13;102027.50;;;-0.62;100.00
18813;BME280;9534;51.140;6.296;2023-01-28T16:42:18;102020.63;;;-0.66;100.00
18813;BME280;9534;51.140;6.296;2023-01-28T16:46:25;102021.72;;;-0.56;100.00
18813;BME280;9534;51.140;6.296;2023-01-28T16:50:28;102018.91;;;-0.67;100.00
18813;BME280;9534;51.140;6.296;2023-01-28T16:54:34;102031.91;;;-0.73;100.00
18813;BME280;9534;51.140;6.296;2023-01-28T16:58:37;102030.59;;;-0.93;100.00
18813;BME280;9534;51.140;6.296;2023-01-28T17:02:40;102025.75;;;-0.88;100.00
18813;BME280;9534;51.140;6.296;2023-01-28T17:06:44;102024.53;;;-0.96;100.00
18813;BME280;9534;51.140;6.296;2023-01-28T17:10:52;102014.41;;;-0.79;100.00
18813;BME280;9534;51.140;6.296;2023-01-28T17:14:55;102026.59;;;-1.00;100.00
18813;BME280;9534;51.140;6.296;2023-01-28T17:18:59;102021.94;;;-1.36;100.00
18813;BME280;9534;51.140;6.296;2023-01-28T17:23:02;102032.88;;;-1.39;100.00
18813;BME280;9534;51.140;6.296;2023-01-28T17:27:09;102035.47;;;-1.64;100.00
18813;BME280;9534;51.140;6.296;2023-01-28T17:31:13;102033.28;;;-1.45;100.00
18813;BME280;9534;51.140;6.296;2023-01-28T17:35:16;102029.38;;;-1.27;100.00
18813;BME280;9534;51.140;6.296;2023-01-28T17:39:20;102012.25;;;-1.13;100.00
18813;BME280;9534;51.140;6.296;2023-01-28T17:43:24;102024.78;;;-1.25;100.00
18813;BME280;9534;51.140;6.296;2023-01-28T17:47:28;102023.13;;;-1.54;100.00
18813;BME280;9534;51.140;6.296;2023-01-28T17:51:31;102020.72;;;-1.71;100.00
18813;BME280;9534;51.140;6.296;2023-01-28T17:55:35;102022.28;;;-1.95;100.00
18813;BME280;9534;51.140;6.296;2023-01-28T17:59:39;102052.34;;;-1.90;100.00
18813;BME280;9534;51.140;6.296;2023-01-28T18:03:43;102049.09;;;-1.95;100.00
18813;BME280;9534;51.140;6.296;2023-01-28T18:07:46;102068.56;;;-2.06;100.00
18813;BME280;9534;51.140;6.296;2023-01-28T18:11:51;102073.22;;;-2.09;100.00
18813;BME280;9534;51.140;6.296;2023-01-28T18:15:55;102076.88;;;-2.10;100.00
18813;BME280;9534;51.140;6.296;2023-01-28T18:19:58;102083.56;;;-2.17;100.00
18813;BME280;9534;51.140;6.296;2023-01-28T18:24:02;102084.72;;;-2.21;100.00
18813;BME280;9534;51.140;6.296;2023-01-28T18:28:05;102092.06;;;-2.38;100.00
18813;BME280;9534;51.140;6.296;2023-01-28T18:32:10;102092.91;;;-2.38;100.00
18813;BME280;9534;51.140;6.296;2023-01-28T18:36:14;102100.78;;;-2.35;100.00
18813;BME280;9534;51.140;6.296;2023-01-28T18:40:17;102096.19;;;-2.33;100.00
18813;BME280;9534;51.140;6.296;2023-01-28T18:44:21;102095.59;;;-2.38;100.00
18813;BME280;9534;51.140;6.296;2023-01-28T18:48:26;102110.34;;;-2.45;100.00
18813;BME280;9534;51.140;6.296;2023-01-28T18:52:31;102117.63;;;-2.47;100.00
18813;BME280;9534;51.140;6.296;2023-01-28T18:56:34;102118.38;;;-2.45;100.00
18813;BME280;9534;51.140;6.296;2023-01-28T19:00:37;102108.03;;;-2.51;100.00
18813;BME280;9534;51.140;6.296;2023-01-28T19:04:42;102113.75;;;-2.57;100.00
18813;BME280;9534;51.140;6.296;2023-01-28T19:08:50;102105.13;;;-2.62;100.00
18813;BME280;9534;51.140;6.296;2023-01-28T19:12:53;102120.75;;;-2.54;100.00
18813;BME280;9534;51.140;6.296;2023-01-28T19:16:56;102118.53;;;-2.62;100.00
18813;BME280;9534;51.140;6.296;2023-01-28T19:21:03;102126.75;;;-2.80;100.00
18813;BME280;9534;51.140;6.296;2023-01-28T19:25:07;102129.38;;;-2.79;100.00
18813;BME280;9534;51.140;6.296;2023-01-28T19:29:11;102116.63;;;-2.60;100.00
18813;BME280;9534;51.140;6.296;2023-01-28T19:33:16;102121.88;;;-2.58;100.00
18813;BME280;9534;51.140;6.296;2023-01-28T19:37:21;102119.75;;;-2.24;100.00
18813;BME280;9534;51.140;6.296;2023-01-28T19:41:24;102112.44;;;-2.36;100.00
18813;BME280;9534;51.140;6.296;2023-01-28T19:45:27;102111.16;;;-2.58;100.00
18813;BME280;9534;51.140;6.296;2023-01-28T19:49:30;102107.63;;;-2.59;100.00
18813;BME280;9534;51.140;6.296;2023-01-28T19:53:36;102104.31;;;-2.78;100.00
18813;BME280;9534;51.140;6.296;2023-01-28T19:57:39;102128.00;;;-2.86;100.00
18813;BME280;9534;51.140;6.296;2023-01-28T20:01:43;102120.38;;;-2.78;100.00
18813;BME280;9534;51.140;6.296;2023-01-28T20:05:46;102132.22;;;-2.82;100.00
18813;BME280;9534;51.140;6.296;2023-01-28T20:09:50;102132.09;;;-2.94;100.00
18813;BME280;9534;51.140;6.296;2023-01-28T20:13:54;102132.84;;;-2.92;100.00
18813;BME280;9534;51.140;6.296;2023-01-28T20:17:57;102136.31;;;-2.90;100.00
18813;BME280;9534;51.140;6.296;2023-01-28T20:22:00;102131.97;;;-2.93;100.00
18813;BME280;9534;51.140;6.296;2023-01-28T20:26:05;102132.34;;;-2.99;100.00
18813;BME280;9534;51.140;6.296;2023-01-28T20:30:09;102127.25;;;-3.03;100.00
18813;BME280;9534;51.140;6.296;2023-01-28T20:34:15;102128.28;;;-3.06;100.00
18813;BME280;9534;51.140;6.296;2023-01-28T20:38:19;102115.59;;;-3.18;100.00
18813;BME280;9534;51.140;6.296;2023-01-28T20:42:24;102113.09;;;-3.05;100.00
18813;BME280;9534;51.140;6.296;2023-01-28T20:46:29;102108.16;;;-2.97;100.00
18813;BME280;9534;51.140;6.296;2023-01-28T20:50:33;102111.44;;;-3.08;100.00
18813;BME280;9534;51.140;6.296;2023-01-28T20:54:36;102107.81;;;-3.07;100.00
18813;BME280;9534;51.140;6.296;2023-01-28T20:58:41;102106.69;;;-3.03;100.00
18813;BME280;9534;51.140;6.296;2023-01-28T21:02:44;102098.59;;;-3.17;100.00
18813;BME280;9534;51.140;6.296;2023-01-28T21:06:47;102108.38;;;-2.86;100.00
18813;BME280;9534;51.140;6.296;2023-01-28T21:10:50;102108.66;;;-2.91;100.00
18813;BME280;9534;51.140;6.296;2023-01-28T21:14:55;102086.03;;;-3.01;100.00
18813;BME280;9534;51.140;6.296;2023-01-28T21:18:58;102091.94;;;-3.10;100.00
18813;BME280;9534;51.140;6.296;2023-01-28T21:23:01;102091.47;;;-3.32;100.00
18813;BME280;9534;51.140;6.296;2023-01-28T21:27:04;102086.44;;;-3.38;100.00
18813;BME280;9534;51.140;6.296;2023-01-28T21:31:10;102081.75;;;-3.19;100.00
18813;BME280;9534;51.140;6.296;2023-01-28T21:35:13;102081.75;;;-3.19;100.00
18813;BME280;9534;51.140;6.296;2023-01-28T21:39:17;102075.56;;;-3.35;100.00
18813;BME280;9534;51.140;6.296;2023-01-28T21:43:20;102068.47;;;-3.51;100.00
18813;BME280;9534;51.140;6.296;2023-01-28T21:47:24;102068.13;;;-3.30;100.00
18813;BME280;9534;51.140;6.296;2023-01-28T21:51:27;102073.75;;;-3.34;100.00